Terminal Aerodrome Forecast
Issued by NWS Charleston, WV

Current Version | Previous Version | Graphics & Text | Print | Product List | Glossary On
Versions: 1 2 3 4 5 6 7 8 9 10 11 12 13 14 15 16 17 18 19 20 21 22 23 24 25 26
000
FTUS41 KRLX 201700
TAFCRW
TAF
KCRW 201731Z 2018/2118 19005KT P6SM SCT050 BKN090
     FM202300 20004KT P6SM SCT250
     FM210400 18003KT 6SM BR FEW150
     FM210600 18002KT 4SM BR FEW035
     FM210900 20006KT P6SM BKN030
     FM211400 22008KT P6SM VCSH BKN025=

USA.gov is the U.S. government's official web portal to all federal, state and local government web resources and services.